Great Falls, VA (22066)

9:32 PM EST on March 05, 2015 (GMT -0500)
Great Falls VA | Change Station
CLOSE
Current Station
Personal Weather Station
Location: Great Falls, VA
Elevation: 380 ft
Nearby Weather Stations

Elev 380 ft 39.01 °N, 77.31 °W | Updated 2 minutes ago

Overcast
Overcast
21.4 °F
Feels Like 15 °F
N
5.0
Wind Variable Wind from NW
Gusts 5.0 mph

Today
High -- | Low -- °F
--% Chance of Precip.
Yesterday
High -- | Low -- °F
Precip. -- in
6:36 AM 6:05 PM
Full, 100% visible
Pressure 30.40 in
Visibility 9.0 miles
Clouds Few 2100 ft
Mostly Cloudy 8000 ft
Overcast 10000 ft
Windchill 15 °F
Dew Point 17 °F
Humidity 84%
Rainfall in
Snow Depth Not available.
UV 0.0 out of 12
Pollen .70 out of 12
Air Quality Not available.
Flu Activity Not available.
METAR KIAD 060152Z 33009KT 9SM -SN FEW021 BKN080 OVC100 M05/M11 A3039 RMK AO2 SNE35B52 SLP293 P0000 T10501106

More Conditions Fewer Conditions

Pressure 30.40 in
Visibility 9.0 miles
Clouds Few 2100 ft
Mostly Cloudy 8000 ft
Overcast 10000 ft
Windchill 15 °F
Dew Point 17 °F
Humidity 84%
Rainfall in
Snow Depth Not available.
UV 0.0 out of 12
Pollen .70 out of 12
Air Quality Not available.
Flu Activity Not available.
METAR KIAD 060152Z 33009KT 9SM -SN FEW021 BKN080 OVC100 M05/M11 A3039 RMK AO2 SNE35B52 SLP293 P0000 T10501106

More Conditions Fewer Conditions

10-Day Weather Forecast

Almanac

Astronomy

Mar. 05, 2015 Rise Set
Actual Time
Civil Twilight
Nautical Twilight
Astronomical Twilight
Moon
Length of Visible Light
Length of Day
Tomorrow will be .
, % of the Moon is Illuminated

Today's Extremes

State Highs State Lows

Community

WunderPhotos

Upload Photos

1,803,126 photos uploaded!

WunderBlogs® & News

Nearby

Air Quality

  Air Quality AQ Index Pollutant
Not available.

Snow Depth

Station Depth Elevation

Earthquake Activity

City Distance Mag. Time & Date
Minimum magnitude displayed is 2.5.

Coastal Water Temperatures

Place Temperature

Nearby Weather Stations